createdAt,value
2023-03-27T00:01:35.415Z,20.65
2023-03-27T00:04:03.376Z,23.35
2023-03-27T00:06:34.589Z,23.38
2023-03-27T00:09:03.937Z,25.00
2023-03-27T00:11:33.225Z,27.35
2023-03-27T00:14:00.997Z,25.60
2023-03-27T00:16:28.938Z,23.15
2023-03-27T00:18:57.189Z,18.13
2023-03-27T00:21:26.123Z,24.80
2023-03-27T00:23:54.816Z,22.00
2023-03-27T00:26:22.793Z,22.25
2023-03-27T00:28:50.911Z,28.88
2023-03-27T00:31:18.827Z,26.42
2023-03-27T00:33:46.979Z,22.27
2023-03-27T00:36:15.445Z,21.95
2023-03-27T00:38:43.919Z,21.70
2023-03-27T00:41:12.858Z,23.05
2023-03-27T00:43:45.087Z,23.55
2023-03-27T00:46:16.143Z,29.13
2023-03-27T00:48:47.395Z,26.00
2023-03-27T00:51:15.974Z,26.20
2023-03-27T00:53:44.834Z,20.02
2023-03-27T00:56:13.314Z,20.52
2023-03-27T00:58:49.630Z,20.45
2023-03-27T01:01:20.014Z,21.88
2023-03-27T01:03:49.397Z,21.23
2023-03-27T01:28:58.277Z,23.25
2023-03-27T01:31:45.475Z,23.02
2023-03-27T01:34:13.348Z,18.85
2023-03-27T01:36:52.984Z,21.98
2023-03-27T01:39:27.140Z,20.63
2023-03-27T01:42:15.987Z,17.80
2023-03-27T01:44:47.023Z,18.73
2023-03-27T01:47:35.255Z,17.05
2023-03-27T01:50:06.739Z,16.45
2023-03-27T01:52:37.513Z,18.17
2023-03-27T01:55:09.912Z,22.20
2023-03-27T02:00:22.638Z,22.13
2023-03-27T02:02:53.932Z,19.63
2023-03-27T02:05:30.195Z,19.75
2023-03-27T02:08:05.884Z,18.65
2023-03-27T02:10:38.059Z,15.43
2023-03-27T02:13:18.569Z,16.55
2023-03-27T02:15:49.039Z,18.52
2023-03-27T02:18:19.837Z,15.75
2023-03-27T02:20:48.192Z,16.58
2023-03-27T02:23:16.530Z,17.08
2023-03-27T02:25:46.188Z,21.13
2023-03-27T02:28:26.238Z,18.63
2023-03-27T02:31:05.763Z,20.80
2023-03-27T02:33:52.372Z,15.68
2023-03-27T02:36:25.851Z,19.30
2023-03-27T02:38:54.851Z,18.02
2023-03-27T02:41:32.103Z,21.92
2023-03-27T02:44:18.177Z,25.40
2023-03-27T02:47:28.740Z,21.00
2023-03-27T02:49:59.442Z,19.50
2023-03-27T02:52:29.392Z,17.52
2023-03-27T02:55:06.435Z,20.23
2023-03-27T02:57:39.982Z,18.13
2023-03-27T03:00:25.927Z,19.35
2023-03-27T03:03:14.606Z,17.85
2023-03-27T03:05:43.287Z,22.38
2023-03-27T03:08:11.245Z,27.30
2023-03-27T03:10:46.159Z,26.33
2023-03-27T03:13:15.218Z,23.83
2023-03-27T03:15:46.069Z,22.95
2023-03-27T03:18:14.197Z,24.02
2023-03-27T03:20:42.751Z,23.15
2023-03-27T03:23:11.159Z,29.92
2023-03-27T03:25:39.947Z,26.50
2023-03-27T03:28:08.305Z,24.58
2023-03-27T03:30:42.122Z,27.52
2023-03-27T03:33:14.355Z,31.02
2023-03-27T03:35:43.350Z,30.02
2023-03-27T03:38:27.129Z,27.05
2023-03-27T03:40:57.058Z,31.23
2023-03-27T03:43:26.313Z,34.33
2023-03-27T03:45:55.574Z,32.00
2023-03-27T03:48:23.996Z,30.75
2023-03-27T03:50:52.161Z,35.53
2023-03-27T03:53:21.523Z,30.23
2023-03-27T03:55:52.399Z,32.25
2023-03-27T03:58:20.578Z,32.30
2023-03-27T04:00:48.460Z,32.10
2023-03-27T04:03:34.056Z,29.67
2023-03-27T04:06:05.621Z,29.58
2023-03-27T04:08:37.290Z,29.25
2023-03-27T04:11:05.610Z,28.73
2023-03-27T04:13:47.038Z,31.77
2023-03-27T04:16:30.239Z,28.08
2023-03-27T04:19:01.278Z,35.90
2023-03-27T04:21:31.210Z,32.00
2023-03-27T04:24:02.543Z,32.20
2023-03-27T04:26:44.058Z,32.55
2023-03-27T04:29:34.873Z,31.23
2023-03-27T04:32:02.774Z,31.25
2023-03-27T04:34:42.765Z,30.92
2023-03-27T04:37:23.398Z,32.42
2023-03-27T04:40:27.251Z,31.08
2023-03-27T04:42:56.068Z,32.55
2023-03-27T04:45:25.894Z,32.55
2023-03-27T04:47:54.713Z,29.25
2023-03-27T04:50:28.280Z,32.92
2023-03-27T04:53:00.284Z,32.25
2023-03-27T04:55:38.283Z,30.63
2023-03-27T04:58:06.521Z,36.72
2023-03-27T05:00:36.442Z,33.47
2023-03-27T05:03:10.631Z,33.08
2023-03-27T05:05:56.149Z,34.97
2023-03-27T05:08:24.091Z,34.72
2023-03-27T05:10:52.175Z,31.20
2023-03-27T05:13:20.149Z,36.88
2023-03-27T05:15:48.473Z,33.15
2023-03-27T05:18:19.166Z,36.33
2023-03-27T05:20:51.299Z,25.63
2023-03-27T05:23:19.455Z,38.17
2023-03-27T05:26:00.666Z,35.15
2023-03-27T05:28:45.644Z,37.97
2023-03-27T05:31:13.663Z,38.97
2023-03-27T05:33:58.662Z,37.15
2023-03-27T05:36:30.552Z,39.42
2023-03-27T05:38:59.142Z,40.53
2023-03-27T05:41:38.295Z,40.65
2023-03-27T05:44:07.532Z,37.15
2023-03-27T05:46:39.762Z,35.75
2023-03-27T05:49:18.828Z,38.20
2023-03-27T05:51:52.767Z,34.13
2023-03-27T05:54:22.027Z,28.35
2023-03-27T05:57:04.074Z,33.38
2023-03-27T05:59:33.426Z,31.15
2023-03-27T06:02:21.079Z,31.23
2023-03-27T06:04:59.270Z,34.75
2023-03-27T06:07:34.084Z,36.15
2023-03-27T06:10:07.734Z,38.15
2023-03-27T06:12:47.061Z,34.65
2023-03-27T06:15:33.388Z,37.60
2023-03-27T06:18:16.455Z,32.75
2023-03-27T06:20:44.793Z,34.58
2023-03-27T06:23:13.483Z,35.53
2023-03-27T06:25:43.661Z,31.23
2023-03-27T06:28:13.414Z,34.83
2023-03-27T06:30:46.236Z,32.17
2023-03-27T06:33:33.323Z,36.65
2023-03-27T06:36:05.499Z,34.28
2023-03-27T06:38:38.086Z,33.92
2023-03-27T06:41:07.558Z,34.28
2023-03-27T06:43:53.711Z,36.65
2023-03-27T06:46:45.266Z,43.03
2023-03-27T06:49:29.130Z,43.10
2023-03-27T06:51:57.832Z,56.10
2023-03-27T06:54:25.597Z,63.40
2023-03-27T06:56:55.854Z,66.47
2023-03-27T06:59:24.255Z,69.20
2023-03-27T07:01:58.125Z,77.45
2023-03-27T07:04:26.124Z,75.32
2023-03-27T07:07:01.105Z,76.97
2023-03-27T07:09:33.377Z,65.53
2023-03-27T07:12:05.494Z,56.38
2023-03-27T07:14:34.526Z,60.05
2023-03-27T07:17:02.401Z,51.58
2023-03-27T07:19:46.843Z,45.15
2023-03-27T07:22:17.131Z,42.03
2023-03-27T07:24:46.064Z,37.25
2023-03-27T07:27:16.469Z,35.45
2023-03-27T07:29:45.150Z,37.47
2023-03-27T07:34:58.046Z,34.40
2023-03-27T07:37:32.369Z,28.63
2023-03-27T07:40:29.475Z,26.77
2023-03-27T07:43:43.255Z,23.25
2023-03-27T07:46:11.882Z,22.65
2023-03-27T07:48:41.293Z,24.05
2023-03-27T07:51:17.360Z,23.05
2023-03-27T07:53:45.757Z,23.27
2023-03-27T07:56:20.930Z,48.53
2023-03-27T07:58:51.107Z,23.98
2023-03-27T08:01:22.096Z,22.13
2023-03-27T08:03:50.737Z,22.55
2023-03-27T08:06:20.454Z,24.75
2023-03-27T08:08:49.512Z,25.60
2023-03-27T08:11:29.737Z,37.50
2023-03-27T08:13:59.723Z,40.60
2023-03-27T08:16:29.950Z,25.95
2023-03-27T08:19:01.403Z,23.23
2023-03-27T08:21:33.382Z,20.52
2023-03-27T08:24:04.791Z,17.98
2023-03-27T08:26:36.892Z,21.65
2023-03-27T08:31:38.061Z,22.50
2023-03-27T08:34:06.987Z,19.88
2023-03-27T08:36:44.329Z,22.67
2023-03-27T08:39:13.032Z,18.60
2023-03-27T08:41:51.242Z,20.75
2023-03-27T08:44:28.732Z,20.50
2023-03-27T08:46:59.397Z,18.65
2023-03-27T08:49:39.342Z,21.30
2023-03-27T08:52:23.041Z,20.40
2023-03-27T08:54:58.450Z,10.70
2023-03-27T08:57:36.361Z,14.48
2023-03-27T09:00:26.414Z,12.60
2023-03-27T09:03:20.142Z,6.32
2023-03-27T09:05:59.537Z,4.22
2023-03-27T09:08:29.041Z,4.60
2023-03-27T09:11:09.786Z,4.47
2023-03-27T09:13:53.035Z,4.70
2023-03-27T09:16:30.413Z,4.15
2023-03-27T09:19:03.386Z,2.70
2023-03-27T09:21:37.583Z,3.05
2023-03-27T09:24:16.755Z,1.73
2023-03-27T09:29:51.772Z,2.97
2023-03-27T09:32:45.028Z,1.20
2023-03-27T09:35:16.747Z,2.53
2023-03-27T09:37:46.718Z,1.52
2023-03-27T09:40:23.517Z,4.05
2023-03-27T09:42:54.720Z,2.00
2023-03-27T09:45:23.383Z,2.47
2023-03-27T09:48:04.888Z,1.98
2023-03-27T09:50:44.485Z,3.92
2023-03-27T09:53:36.181Z,1.67
2023-03-27T09:56:21.865Z,3.80
2023-03-27T09:58:52.335Z,2.13
2023-03-27T10:01:37.294Z,2.60
2023-03-27T10:04:25.691Z,2.00
2023-03-27T10:07:02.578Z,2.57
2023-03-27T10:10:02.389Z,2.83
2023-03-27T10:12:34.618Z,2.33
2023-03-27T10:15:07.931Z,3.17
2023-03-27T10:17:40.124Z,1.40
2023-03-27T10:20:13.385Z,1.88
2023-03-27T10:22:44.655Z,1.35
2023-03-27T10:25:24.713Z,1.23
2023-03-27T10:28:18.266Z,1.73
2023-03-27T10:31:12.022Z,2.00
2023-03-27T10:33:54.071Z,2.88
2023-03-27T10:36:50.063Z,1.92
2023-03-27T10:39:22.242Z,1.42
2023-03-27T10:41:58.430Z,2.40
2023-03-27T10:44:28.563Z,3.38
2023-03-27T10:46:59.072Z,2.27
2023-03-27T10:49:41.309Z,3.25
2023-03-27T10:52:20.827Z,4.40
2023-03-27T10:55:15.778Z,2.38
2023-03-27T10:57:47.911Z,4.40
2023-03-27T11:00:22.780Z,2.97
2023-03-27T11:03:03.252Z,10.98
2023-03-27T11:05:34.976Z,1.90
2023-03-27T11:08:29.000Z,2.50
2023-03-27T11:10:58.895Z,1.90
2023-03-27T11:13:33.455Z,3.40
2023-03-27T11:16:20.958Z,2.90
2023-03-27T11:19:37.204Z,2.95
2023-03-27T11:22:33.330Z,3.95
2023-03-27T11:25:14.201Z,6.05
2023-03-27T11:28:10.155Z,3.80
2023-03-27T11:30:50.771Z,3.22
2023-03-27T11:33:24.371Z,1.92
2023-03-27T11:36:06.168Z,1.27
2023-03-27T11:38:58.060Z,3.10
2023-03-27T11:41:27.135Z,3.22
2023-03-27T11:43:56.166Z,4.82
2023-03-27T11:46:51.327Z,2.70
2023-03-27T11:49:51.912Z,2.83
2023-03-27T11:52:33.675Z,3.30
2023-03-27T11:55:06.868Z,2.67
2023-03-27T12:00:16.840Z,2.30
2023-03-27T12:02:55.129Z,1.27
2023-03-27T12:05:44.261Z,3.88
2023-03-27T12:08:34.671Z,1.85
2023-03-27T12:11:04.552Z,4.78
2023-03-27T12:14:01.129Z,3.13
2023-03-27T12:16:54.632Z,2.22
2023-03-27T12:19:34.365Z,0.90
2023-03-27T12:22:44.308Z,0.47
2023-03-27T12:25:22.741Z,2.72
2023-03-27T12:28:29.353Z,0.65
2023-03-27T12:31:45.705Z,1.35
2023-03-27T12:34:20.039Z,1.50
2023-03-27T12:36:48.369Z,0.80
2023-03-27T12:39:21.849Z,0.38
2023-03-27T12:41:51.056Z,6.32
2023-03-27T12:44:31.485Z,0.30
2023-03-27T12:47:08.453Z,0.38
2023-03-27T12:49:46.342Z,0.10
2023-03-27T12:52:26.946Z,0.45
2023-03-27T12:55:19.358Z,0.63
2023-03-27T12:58:10.328Z,0.85
2023-03-27T13:01:08.032Z,1.85
2023-03-27T13:03:55.740Z,0.88
2023-03-27T13:06:31.399Z,0.70
2023-03-27T13:09:07.499Z,1.00
2023-03-27T13:12:08.546Z,0.43
2023-03-27T13:14:36.879Z,2.60
2023-03-27T13:17:14.931Z,0.73
2023-03-27T13:19:50.567Z,0.63
2023-03-27T13:22:45.069Z,3.28
2023-03-27T13:25:39.891Z,1.42
2023-03-27T13:28:18.341Z,0.90
2023-03-27T13:30:56.503Z,1.08
2023-03-27T13:34:14.725Z,1.20
2023-03-27T13:37:05.969Z,1.52
2023-03-27T13:39:47.294Z,0.00
2023-03-27T13:42:18.127Z,0.75
2023-03-27T13:45:00.268Z,0.08
2023-03-27T13:47:34.392Z,0.32
2023-03-27T13:50:15.115Z,0.68
2023-03-27T13:52:52.756Z,2.53
2023-03-27T13:55:59.405Z,0.22
2023-03-27T13:59:10.248Z,0.73
2023-03-27T14:01:42.290Z,1.38
2023-03-27T14:04:17.059Z,0.45
2023-03-27T14:06:48.302Z,1.23
2023-03-27T14:09:36.271Z,1.08
2023-03-27T14:12:18.727Z,0.70
2023-03-27T14:15:00.299Z,2.75
2023-03-27T14:17:31.391Z,0.95
2023-03-27T14:20:14.639Z,2.95
2023-03-27T14:22:56.943Z,2.30
2023-03-27T14:25:34.790Z,1.08
2023-03-27T14:28:34.736Z,1.55
2023-03-27T14:31:08.558Z,1.77
2023-03-27T14:34:18.154Z,1.15
2023-03-27T14:36:50.300Z,1.95
2023-03-27T14:39:27.982Z,1.50
2023-03-27T14:42:03.636Z,2.53
2023-03-27T14:44:35.124Z,4.40
2023-03-27T14:47:14.442Z,1.33
2023-03-27T14:49:47.008Z,1.63
2023-03-27T14:52:27.253Z,2.45
2023-03-27T14:55:18.169Z,2.45
2023-03-27T14:57:50.932Z,3.97
2023-03-27T15:00:20.831Z,2.45
2023-03-27T15:02:52.257Z,2.67
2023-03-27T15:05:22.700Z,3.50
2023-03-27T15:07:56.777Z,1.98
2023-03-27T15:10:56.812Z,0.57
2023-03-27T15:13:51.832Z,1.48
2023-03-27T15:16:28.377Z,2.35
2023-03-27T15:18:58.804Z,1.02
2023-03-27T15:21:46.472Z,2.13
2023-03-27T15:24:41.012Z,2.67
2023-03-27T15:27:14.648Z,5.35
2023-03-27T15:29:44.350Z,3.83
2023-03-27T15:32:15.039Z,7.30
2023-03-27T15:34:47.943Z,5.55
2023-03-27T15:37:26.232Z,7.88
2023-03-27T15:40:09.232Z,1.42
2023-03-27T15:43:06.751Z,3.10
2023-03-27T15:45:36.617Z,1.42
2023-03-27T15:48:19.007Z,2.20
2023-03-27T15:50:57.373Z,2.47
2023-03-27T15:53:33.160Z,2.05
2023-03-27T15:56:02.775Z,3.80
2023-03-27T15:58:49.391Z,1.33
2023-03-27T16:01:22.520Z,1.42
2023-03-27T16:03:51.648Z,1.48
2023-03-27T16:06:24.892Z,1.63
2023-03-27T16:08:53.323Z,2.78
2023-03-27T16:11:41.682Z,4.82
2023-03-27T16:14:32.909Z,6.50
2023-03-27T16:17:14.797Z,1.05
2023-03-27T16:19:51.310Z,0.73
2023-03-27T16:22:32.468Z,0.80
2023-03-27T16:25:01.750Z,0.65
2023-03-27T16:27:33.980Z,1.73
2023-03-27T16:30:01.911Z,1.15
2023-03-27T16:32:44.308Z,1.15
2023-03-27T16:35:27.348Z,1.23
2023-03-27T16:37:58.773Z,2.00
2023-03-27T16:40:26.768Z,2.05
2023-03-27T16:42:54.576Z,2.67
2023-03-27T16:45:22.679Z,1.15
2023-03-27T16:47:53.141Z,5.85
2023-03-27T16:50:24.667Z,2.83
2023-03-27T16:52:52.754Z,3.05
2023-03-27T16:55:25.078Z,1.75
2023-03-27T16:57:54.215Z,3.95
2023-03-27T17:00:22.983Z,2.28
2023-03-27T17:02:51.061Z,0.65
2023-03-27T17:05:19.080Z,2.33
2023-03-27T17:07:48.243Z,3.25
2023-03-27T17:10:16.176Z,2.50
2023-03-27T17:12:44.131Z,0.90
2023-03-27T17:15:11.967Z,1.40
2023-03-27T17:17:39.984Z,2.78
2023-03-27T17:20:08.033Z,2.88
2023-03-27T17:22:36.209Z,3.17
2023-03-27T17:25:05.845Z,0.82
2023-03-27T17:27:34.112Z,1.52
2023-03-27T17:30:02.787Z,2.78
2023-03-27T17:32:30.905Z,1.80
2023-03-27T17:34:58.866Z,2.17
2023-03-27T17:37:27.384Z,4.85
2023-03-27T17:39:55.625Z,3.70
2023-03-27T17:42:23.843Z,3.20
2023-03-27T17:44:51.697Z,1.98
2023-03-27T17:47:19.511Z,1.27
2023-03-27T17:49:47.314Z,5.00
2023-03-27T17:52:15.905Z,5.97
2023-03-27T17:54:43.987Z,3.22
2023-03-27T17:57:11.908Z,2.95
2023-03-27T17:59:39.811Z,0.73
2023-03-27T18:02:07.814Z,0.52
2023-03-27T18:04:36.531Z,0.57
2023-03-27T18:07:04.725Z,1.50
2023-03-27T18:09:35.147Z,1.88
2023-03-27T18:12:03.136Z,1.42
2023-03-27T18:14:31.223Z,11.85
2023-03-27T18:16:59.222Z,51.53
2023-03-27T18:19:28.441Z,13.52
2023-03-27T18:21:56.552Z,4.28
2023-03-27T18:24:24.607Z,2.50
2023-03-27T18:26:53.555Z,1.85
2023-03-27T18:29:21.573Z,2.58
2023-03-27T18:31:49.742Z,2.92
2023-03-27T18:34:17.615Z,6.25
2023-03-27T18:36:50.826Z,3.03
2023-03-27T18:41:46.990Z,1.80
2023-03-27T18:44:18.543Z,4.90
2023-03-27T18:46:46.565Z,7.72
2023-03-27T18:49:24.246Z,4.90
2023-03-27T18:51:53.638Z,2.08
2023-03-27T18:54:23.333Z,3.47
2023-03-27T18:56:54.602Z,5.10
2023-03-27T18:59:22.890Z,2.40
2023-03-27T19:01:58.968Z,8.32
2023-03-27T19:04:27.100Z,3.25
2023-03-27T19:06:57.497Z,1.58
2023-03-27T19:09:34.474Z,2.35
2023-03-27T19:12:10.237Z,1.33
2023-03-27T19:14:58.963Z,1.83
2023-03-27T19:17:51.630Z,1.90
2023-03-27T19:20:31.376Z,4.20
2023-03-27T19:23:19.474Z,1.98
2023-03-27T19:25:51.957Z,3.88
2023-03-27T19:28:20.454Z,1.50
2023-03-27T19:30:50.377Z,2.60
2023-03-27T19:33:19.124Z,2.90
2023-03-27T19:35:52.549Z,2.85
2023-03-27T19:38:45.804Z,1.98
2023-03-27T19:49:16.214Z,2.08
2023-03-27T19:51:50.783Z,6.28
2023-03-27T19:54:19.288Z,1.88
2023-03-27T19:56:47.948Z,1.50
2023-03-27T19:59:29.818Z,2.45
2023-03-27T20:01:59.514Z,5.45
2023-03-27T20:04:27.876Z,2.50
2023-03-27T20:06:59.141Z,1.90
2023-03-27T20:09:30.123Z,1.25
2023-03-27T20:11:58.176Z,2.72
2023-03-27T20:14:26.331Z,2.75
2023-03-27T20:16:54.340Z,2.78
2023-03-27T20:19:29.202Z,6.00
2023-03-27T20:21:59.199Z,12.93
2023-03-27T20:24:29.040Z,7.07
2023-03-27T20:27:03.692Z,3.83
2023-03-27T20:29:31.650Z,1.55
2023-03-27T20:31:59.618Z,1.48
2023-03-27T20:34:27.449Z,1.40
2023-03-27T20:36:59.225Z,1.77
2023-03-27T20:39:49.723Z,3.85
2023-03-27T20:42:23.227Z,1.27
2023-03-27T20:44:58.621Z,2.60
2023-03-27T20:47:26.842Z,1.25
2023-03-27T20:49:59.105Z,2.45
2023-03-27T20:52:27.396Z,1.48
2023-03-27T20:54:55.740Z,1.60
2023-03-27T20:57:24.325Z,1.45
2023-03-27T20:59:54.412Z,1.20
2023-03-27T21:02:22.798Z,1.45
2023-03-27T21:04:51.074Z,1.70
2023-03-27T21:07:19.552Z,2.08
2023-03-27T21:09:47.794Z,1.48
2023-03-27T21:12:16.117Z,2.67
2023-03-27T21:14:43.887Z,3.20
2023-03-27T21:17:13.316Z,1.13
2023-03-27T21:19:41.716Z,3.15
2023-03-27T21:22:10.025Z,4.82
2023-03-27T21:24:40.753Z,1.50
2023-03-27T21:27:08.556Z,0.80
2023-03-27T21:29:36.594Z,1.40
2023-03-27T21:32:05.874Z,1.92
2023-03-27T21:34:33.992Z,1.88
2023-03-27T21:37:02.882Z,3.30
2023-03-27T21:39:31.164Z,1.23
2023-03-27T21:41:59.103Z,1.27
2023-03-27T21:44:27.141Z,1.10
2023-03-27T21:46:55.466Z,2.20
2023-03-27T21:49:23.545Z,2.55
2023-03-27T21:51:51.426Z,0.60
2023-03-27T21:54:19.409Z,1.02
2023-03-27T21:56:47.333Z,1.00
2023-03-27T21:59:15.733Z,1.13
2023-03-27T22:01:43.652Z,1.65
2023-03-27T22:04:11.869Z,1.33
2023-03-27T22:06:39.836Z,2.17
2023-03-27T22:09:07.772Z,1.13
2023-03-27T22:11:35.606Z,2.35
2023-03-27T22:14:03.601Z,1.83
2023-03-27T22:16:31.618Z,1.23
2023-03-27T22:18:59.716Z,1.10
2023-03-27T22:21:29.016Z,1.25
2023-03-27T22:23:58.046Z,1.52
2023-03-27T22:26:37.224Z,0.90
2023-03-27T22:29:06.022Z,3.00
2023-03-27T22:31:34.996Z,1.10
2023-03-27T22:34:04.664Z,0.80
2023-03-27T22:36:33.477Z,1.10
2023-03-27T22:39:01.397Z,3.10
2023-03-27T22:41:29.440Z,1.42
2023-03-27T22:43:57.254Z,0.98
2023-03-27T22:46:25.280Z,1.40
2023-03-27T22:48:59.501Z,1.05
2023-03-27T22:51:31.104Z,1.52
2023-03-27T22:53:59.155Z,1.13
2023-03-27T22:56:27.267Z,2.28
2023-03-27T22:58:55.316Z,3.70
2023-03-27T23:01:23.408Z,1.77
2023-03-27T23:03:51.414Z,1.20
2023-03-27T23:06:20.711Z,1.30
2023-03-27T23:08:49.494Z,3.40
2023-03-27T23:11:18.313Z,2.95
2023-03-27T23:13:46.423Z,2.83
2023-03-27T23:16:14.626Z,1.77
2023-03-27T23:18:42.478Z,1.58
2023-03-27T23:21:11.531Z,1.88
2023-03-27T23:23:40.513Z,3.83
2023-03-27T23:26:09.413Z,1.33
2023-03-27T23:28:38.717Z,1.10
2023-03-27T23:31:07.803Z,1.48
2023-03-27T23:33:40.753Z,1.80
2023-03-27T23:36:19.608Z,1.05
2023-03-27T23:38:47.677Z,1.50
2023-03-27T23:41:16.425Z,1.55
2023-03-27T23:43:44.779Z,1.38
2023-03-27T23:46:13.191Z,2.72
2023-03-27T23:48:44.028Z,4.47
2023-03-27T23:51:12.991Z,1.15
2023-03-27T23:53:41.290Z,2.05
2023-03-27T23:56:09.425Z,1.67
2023-03-27T23:58:37.700Z,2.28
